Archival Weather

Central Park

Central Park, New York (KNYC)

Report from: Thursday, September 21, 2023 3:51 AM EDT
Current time: Sunday, February 25, 2024 3:42 PM EST

Current weather – Weather history – Daily summaries
Weather forecast

Temperature15.0°C (59.0°F)
Dew point11.1°C (52.0°F)
Winds Calm
Visibility10 mi. (16.1 km)
Clouds Sky clear
Altimeter30.23 in.Hg (1024 mB)
Relative humidity78 %
Density altitude-133 ft. (-40 m)
Sea-level pressure102.3 kPa (1023 mB, 30.20 in.Hg)
Remarks Fully automated report
System requires maintenance
Automated weather observing station with precipitation discriminator
Flight conditions Visual Meteorological Conditions
Raw dataKNYC 210751Z AUTO 00000KT 10SM CLR 15/11 A3023 RMK AO2 SLP227 T01500111 $
An error has occurred. This application may no longer respond until reloaded. Reload 🗙